createdAt,value
2023-04-09T00:02:53.753Z,15.80
2023-04-09T00:05:59.317Z,16.30
2023-04-09T00:09:05.195Z,16.02
2023-04-09T00:12:10.843Z,16.23
2023-04-09T00:15:27.817Z,15.95
2023-04-09T00:18:36.606Z,15.18
2023-04-09T00:21:41.842Z,16.23
2023-04-09T00:24:47.540Z,15.18
2023-04-09T00:27:53.202Z,14.20
2023-04-09T00:30:58.744Z,14.82
2023-04-09T00:34:03.818Z,13.73
2023-04-09T00:37:09.323Z,14.27
2023-04-09T00:40:15.610Z,13.90
2023-04-09T00:43:21.902Z,13.35
2023-04-09T00:46:27.512Z,13.80
2023-04-09T00:49:33.974Z,12.63
2023-04-09T00:52:39.970Z,12.90
2023-04-09T00:55:46.306Z,13.07
2023-04-09T00:58:52.164Z,12.07
2023-04-09T01:01:57.799Z,12.23
2023-04-09T01:05:03.780Z,13.27
2023-04-09T01:08:19.823Z,13.15
2023-04-09T01:11:46.906Z,15.27
2023-04-09T01:14:52.395Z,13.27
2023-04-09T01:18:16.409Z,14.50
2023-04-09T01:21:27.838Z,13.55
2023-04-09T01:24:53.474Z,13.10
2023-04-09T01:28:28.174Z,13.65
2023-04-09T01:31:39.322Z,13.73
2023-04-09T01:34:48.160Z,12.03
2023-04-09T01:37:55.222Z,14.27
2023-04-09T01:41:03.831Z,12.57
2023-04-09T01:44:13.068Z,13.05
2023-04-09T01:47:18.897Z,11.98
2023-04-09T01:50:24.562Z,11.98
2023-04-09T01:53:31.498Z,13.13
2023-04-09T01:56:49.197Z,12.43
2023-04-09T01:59:55.392Z,12.68
2023-04-09T02:03:11.053Z,12.27
2023-04-09T02:06:44.634Z,12.20
2023-04-09T02:09:50.662Z,12.07
2023-04-09T02:12:57.509Z,11.35
2023-04-09T02:16:04.793Z,10.80
2023-04-09T02:19:10.715Z,10.32
2023-04-09T02:22:16.999Z,9.57
2023-04-09T02:25:23.239Z,9.40
2023-04-09T02:28:28.902Z,9.73
2023-04-09T02:31:34.633Z,8.52
2023-04-09T02:34:39.796Z,9.68
2023-04-09T02:37:45.066Z,9.77
2023-04-09T02:40:50.537Z,11.35
2023-04-09T02:43:55.998Z,10.65
2023-04-09T02:47:01.661Z,13.07
2023-04-09T02:50:07.896Z,11.48
2023-04-09T02:53:16.147Z,10.80
2023-04-09T02:56:21.831Z,11.05
2023-04-09T02:59:27.470Z,10.98
2023-04-09T03:02:32.867Z,10.35
2023-04-09T03:05:39.177Z,9.52
2023-04-09T03:08:44.630Z,9.50
2023-04-09T03:11:50.311Z,9.10
2023-04-09T03:14:55.772Z,8.13
2023-04-09T03:18:01.560Z,7.80
2023-04-09T03:21:08.092Z,8.27
2023-04-09T03:24:16.326Z,8.32
2023-04-09T03:27:22.491Z,9.23
2023-04-09T03:30:31.480Z,7.22
2023-04-09T03:33:39.972Z,8.20
2023-04-09T03:36:46.630Z,8.55
2023-04-09T03:40:00.922Z,8.15
2023-04-09T03:43:08.902Z,7.93
2023-04-09T03:46:18.073Z,8.18
2023-04-09T03:49:26.970Z,8.85
2023-04-09T03:52:35.892Z,11.90
2023-04-09T03:55:45.803Z,9.40
2023-04-09T03:58:58.213Z,8.30
2023-04-09T04:02:13.124Z,8.98
2023-04-09T04:05:26.460Z,8.82
2023-04-09T04:08:34.417Z,10.02
2023-04-09T04:11:40.091Z,9.55
2023-04-09T04:14:45.984Z,9.85
2023-04-09T04:18:02.472Z,9.48
2023-04-09T04:21:21.635Z,8.98
2023-04-09T04:24:35.794Z,10.57
2023-04-09T04:27:42.923Z,10.95
2023-04-09T04:30:49.936Z,10.55
2023-04-09T04:33:55.411Z,10.98
2023-04-09T04:37:01.192Z,10.95
2023-04-09T04:40:10.793Z,10.95
2023-04-09T04:43:20.567Z,10.32
2023-04-09T04:46:27.175Z,11.00
2023-04-09T04:49:32.605Z,10.25
2023-04-09T04:52:40.874Z,9.85
2023-04-09T04:55:46.998Z,9.18
2023-04-09T04:58:55.658Z,9.88
2023-04-09T05:02:02.972Z,9.55
2023-04-09T05:05:14.789Z,10.38
2023-04-09T05:08:26.972Z,9.93
2023-04-09T05:11:34.614Z,11.02
2023-04-09T05:14:44.517Z,9.00
2023-04-09T05:17:50.490Z,9.70
2023-04-09T05:20:56.964Z,10.70
2023-04-09T05:24:04.567Z,10.95
2023-04-09T05:27:11.855Z,10.07
2023-04-09T05:30:18.727Z,11.02
2023-04-09T05:33:25.001Z,10.63
2023-04-09T05:36:30.773Z,11.70
2023-04-09T05:39:37.568Z,9.57
2023-04-09T05:42:43.180Z,8.80
2023-04-09T05:45:58.332Z,8.80
2023-04-09T05:49:04.196Z,8.63
2023-04-09T05:52:12.026Z,9.55
2023-04-09T05:55:17.702Z,8.93
2023-04-09T05:58:30.906Z,9.80
2023-04-09T06:01:37.324Z,7.57
2023-04-09T06:04:42.658Z,6.88
2023-04-09T06:07:51.981Z,6.50
2023-04-09T06:10:57.453Z,5.63
2023-04-09T06:14:02.887Z,5.15
2023-04-09T06:17:08.249Z,5.63
2023-04-09T06:20:13.667Z,5.47
2023-04-09T06:23:19.442Z,4.97
2023-04-09T06:26:25.054Z,6.07
2023-04-09T06:29:30.641Z,3.63
2023-04-09T06:32:46.853Z,4.13
2023-04-09T06:35:59.533Z,3.75
2023-04-09T06:39:05.040Z,4.82
2023-04-09T06:42:10.231Z,4.25
2023-04-09T06:45:29.687Z,3.28
2023-04-09T06:48:35.282Z,3.50
2023-04-09T06:51:41.217Z,3.58
2023-04-09T06:54:47.640Z,3.60
2023-04-09T06:57:52.718Z,4.10
2023-04-09T07:00:57.874Z,3.67
2023-04-09T07:04:02.999Z,3.90
2023-04-09T07:07:08.407Z,3.80
2023-04-09T07:10:13.733Z,3.20
2023-04-09T07:13:19.245Z,3.53
2023-04-09T07:16:24.718Z,3.42
2023-04-09T07:19:29.583Z,3.53
2023-04-09T07:22:36.913Z,3.60
2023-04-09T07:25:42.617Z,3.63
2023-04-09T07:28:48.009Z,3.30
2023-04-09T07:31:53.250Z,3.13
2023-04-09T07:34:59.637Z,3.42
2023-04-09T07:38:05.250Z,3.00
2023-04-09T07:41:13.593Z,3.25
2023-04-09T07:44:18.938Z,3.47
2023-04-09T07:47:24.388Z,3.20
2023-04-09T07:50:30.208Z,2.97
2023-04-09T07:53:35.583Z,3.63
2023-04-09T07:56:41.024Z,3.45
2023-04-09T07:59:46.881Z,3.45
2023-04-09T08:02:53.123Z,3.20
2023-04-09T08:05:58.419Z,3.13
2023-04-09T08:09:04.030Z,3.20
2023-04-09T08:12:09.137Z,4.53
2023-04-09T08:15:14.587Z,3.20
2023-04-09T08:18:19.382Z,3.30
2023-04-09T08:21:24.476Z,2.55
2023-04-09T08:24:29.912Z,2.75
2023-04-09T08:27:36.338Z,2.78
2023-04-09T08:30:41.922Z,3.03
2023-04-09T08:33:47.972Z,2.80
2023-04-09T08:36:53.530Z,3.50
2023-04-09T08:39:58.890Z,2.90
2023-04-09T08:43:09.339Z,2.13
2023-04-09T08:46:18.296Z,2.80
2023-04-09T08:49:23.188Z,2.65
2023-04-09T08:52:34.168Z,2.65
2023-04-09T08:55:39.389Z,2.30
2023-04-09T08:58:46.197Z,2.50
2023-04-09T09:02:08.938Z,3.55
2023-04-09T09:05:14.934Z,2.47
2023-04-09T09:08:27.000Z,2.33
2023-04-09T09:11:33.019Z,2.72
2023-04-09T09:14:38.108Z,2.67
2023-04-09T09:17:55.975Z,2.35
2023-04-09T09:21:15.858Z,2.22
2023-04-09T09:24:21.060Z,2.10
2023-04-09T09:27:33.848Z,3.10
2023-04-09T09:30:41.162Z,3.65
2023-04-09T09:33:47.522Z,2.65
2023-04-09T09:36:52.844Z,2.72
2023-04-09T09:39:59.325Z,3.65
2023-04-09T09:43:04.032Z,3.53
2023-04-09T09:46:11.417Z,3.40
2023-04-09T09:49:16.427Z,3.40
2023-04-09T09:52:28.915Z,2.70
2023-04-09T09:55:38.360Z,3.30
2023-04-09T09:59:00.422Z,2.97
2023-04-09T10:02:07.743Z,2.70
2023-04-09T10:05:14.532Z,3.00
2023-04-09T10:08:22.740Z,2.35
2023-04-09T10:11:28.282Z,2.40
2023-04-09T10:14:36.271Z,3.20
2023-04-09T10:17:42.322Z,3.13
2023-04-09T10:21:14.694Z,3.47
2023-04-09T10:24:21.034Z,3.22
2023-04-09T10:27:28.573Z,3.40
2023-04-09T10:30:35.334Z,3.22
2023-04-09T10:33:43.733Z,3.78
2023-04-09T10:36:56.541Z,2.72
2023-04-09T10:40:05.019Z,2.83
2023-04-09T10:43:11.007Z,3.15
2023-04-09T10:46:31.119Z,4.15
2023-04-09T10:49:39.959Z,3.42
2023-04-09T10:52:45.905Z,3.75
2023-04-09T10:55:53.289Z,3.80
2023-04-09T10:58:58.682Z,3.90
2023-04-09T11:02:13.829Z,3.50
2023-04-09T11:05:38.589Z,3.42
2023-04-09T11:08:44.732Z,2.78
2023-04-09T11:11:57.833Z,3.50
2023-04-09T11:15:04.125Z,3.58
2023-04-09T11:18:14.280Z,3.10
2023-04-09T11:21:19.850Z,2.65
2023-04-09T11:24:25.040Z,3.38
2023-04-09T11:27:30.561Z,3.50
2023-04-09T11:30:37.628Z,3.47
2023-04-09T11:33:47.520Z,3.30
2023-04-09T11:36:52.837Z,4.10
2023-04-09T11:39:59.486Z,4.03
2023-04-09T11:43:08.570Z,4.50
2023-04-09T11:46:14.421Z,3.10
2023-04-09T11:49:20.397Z,3.00
2023-04-09T11:52:25.879Z,3.45
2023-04-09T11:55:31.319Z,4.25
2023-04-09T11:58:36.712Z,3.40
2023-04-09T12:01:42.294Z,3.65
2023-04-09T12:04:51.281Z,3.40
2023-04-09T12:08:05.236Z,3.75
2023-04-09T12:11:12.980Z,3.15
2023-04-09T12:14:21.782Z,3.00
2023-04-09T12:17:27.425Z,3.35
2023-04-09T12:20:47.919Z,3.20
2023-04-09T12:23:54.008Z,2.92
2023-04-09T12:26:59.350Z,2.72
2023-04-09T12:30:05.122Z,2.80
2023-04-09T12:33:11.587Z,3.50
2023-04-09T12:36:17.191Z,2.97
2023-04-09T12:39:23.070Z,3.10
2023-04-09T12:42:28.604Z,3.17
2023-04-09T12:45:34.007Z,3.25
2023-04-09T12:48:39.612Z,2.97
2023-04-09T12:51:45.287Z,2.92
2023-04-09T12:54:52.525Z,3.13
2023-04-09T12:57:58.722Z,4.00
2023-04-09T13:01:04.664Z,2.67
2023-04-09T13:04:10.072Z,2.72
2023-04-09T13:07:17.774Z,2.90
2023-04-09T13:10:23.452Z,3.50
2023-04-09T13:13:29.110Z,2.97
2023-04-09T13:16:34.643Z,7.18
2023-04-09T13:19:42.477Z,4.55
2023-04-09T13:22:49.341Z,2.53
2023-04-09T13:25:54.987Z,2.70
2023-04-09T13:29:00.452Z,2.30
2023-04-09T13:32:07.803Z,2.75
2023-04-09T13:35:13.245Z,2.42
2023-04-09T13:38:18.913Z,2.63
2023-04-09T13:41:29.823Z,2.25
2023-04-09T13:44:36.290Z,2.30
2023-04-09T13:47:43.189Z,2.22
2023-04-09T13:50:48.859Z,2.60
2023-04-09T13:53:54.456Z,2.88
2023-04-09T13:56:59.942Z,2.55
2023-04-09T14:00:06.809Z,2.80
2023-04-09T14:03:13.493Z,2.50
2023-04-09T14:06:19.284Z,2.55
2023-04-09T14:09:25.055Z,2.55
2023-04-09T14:12:30.656Z,2.33
2023-04-09T14:15:35.945Z,2.25
2023-04-09T14:18:41.855Z,2.30
2023-04-09T14:21:47.167Z,2.33
2023-04-09T14:24:52.738Z,2.13
2023-04-09T14:27:59.362Z,2.03
2023-04-09T14:31:05.404Z,2.47
2023-04-09T14:34:11.300Z,1.60
2023-04-09T14:37:16.789Z,2.50
2023-04-09T14:40:22.201Z,2.17
2023-04-09T14:43:27.836Z,2.20
2023-04-09T14:46:33.480Z,2.35
2023-04-09T14:49:39.353Z,2.00
2023-04-09T14:52:48.600Z,2.20
2023-04-09T14:55:53.932Z,2.10
2023-04-09T14:58:59.513Z,2.75
2023-04-09T15:02:06.158Z,2.40
2023-04-09T15:05:11.824Z,2.08
2023-04-09T15:08:17.438Z,2.00
2023-04-09T15:11:23.280Z,1.98
2023-04-09T15:14:30.929Z,1.77
2023-04-09T15:17:36.823Z,1.83
2023-04-09T15:20:43.917Z,1.90
2023-04-09T15:23:53.228Z,1.75
2023-04-09T15:26:58.837Z,1.50
2023-04-09T15:30:04.985Z,1.60
2023-04-09T15:33:10.710Z,1.30
2023-04-09T15:36:16.023Z,1.60
2023-04-09T15:39:24.894Z,1.40
2023-04-09T15:42:30.092Z,1.77
2023-04-09T15:45:35.697Z,1.30
2023-04-09T15:48:41.948Z,1.60
2023-04-09T15:51:48.662Z,1.40
2023-04-09T15:54:54.326Z,1.40
2023-04-09T15:58:00.739Z,1.27
2023-04-09T16:01:09.754Z,1.00
2023-04-09T16:04:15.677Z,1.40
2023-04-09T16:07:21.713Z,1.40
2023-04-09T16:10:27.010Z,1.23
2023-04-09T16:13:32.538Z,1.50
2023-04-09T16:16:38.967Z,1.50
2023-04-09T16:19:44.602Z,2.00
2023-04-09T16:22:50.471Z,1.85
2023-04-09T16:25:56.186Z,1.55
2023-04-09T16:29:04.608Z,1.77
2023-04-09T16:32:10.590Z,1.50
2023-04-09T16:35:16.556Z,1.90
2023-04-09T16:38:23.851Z,1.88
2023-04-09T16:41:29.220Z,1.85
2023-04-09T16:44:34.322Z,2.65
2023-04-09T16:47:39.497Z,2.28
2023-04-09T16:50:44.869Z,2.58
2023-04-09T16:53:50.353Z,2.85
2023-04-09T16:56:57.667Z,2.30
2023-04-09T17:00:06.780Z,2.67
2023-04-09T17:03:12.158Z,2.85
2023-04-09T17:06:18.296Z,2.70
2023-04-09T17:09:24.880Z,2.80
2023-04-09T17:12:31.621Z,3.03
2023-04-09T17:15:37.865Z,2.60
2023-04-09T17:18:43.196Z,3.20
2023-04-09T17:21:48.568Z,3.80
2023-04-09T17:24:56.725Z,2.30
2023-04-09T17:28:02.374Z,2.60
2023-04-09T17:31:14.868Z,2.60
2023-04-09T17:34:20.359Z,3.20
2023-04-09T17:37:28.229Z,2.47
2023-04-09T17:40:33.295Z,2.90
2023-04-09T17:43:38.409Z,2.53
2023-04-09T17:46:44.135Z,2.95
2023-04-09T17:49:49.273Z,3.30
2023-04-09T17:52:54.326Z,2.22
2023-04-09T17:56:03.276Z,2.50
2023-04-09T17:59:08.735Z,3.00
2023-04-09T18:02:14.273Z,2.45
2023-04-09T18:05:20.123Z,2.30
2023-04-09T18:08:25.372Z,2.42
2023-04-09T18:11:30.338Z,2.90
2023-04-09T18:14:35.417Z,2.70
2023-04-09T18:17:40.969Z,3.00
2023-04-09T18:20:47.718Z,3.17
2023-04-09T18:23:53.243Z,2.70
2023-04-09T18:27:00.378Z,2.45
2023-04-09T18:30:06.428Z,2.80
2023-04-09T18:33:11.573Z,2.63
2023-04-09T18:36:16.962Z,2.10
2023-04-09T18:39:22.959Z,2.60
2023-04-09T18:42:28.505Z,2.40
2023-04-09T18:45:34.103Z,2.25
2023-04-09T18:48:40.136Z,2.00
2023-04-09T18:51:45.608Z,2.60
2023-04-09T18:54:51.077Z,2.33
2023-04-09T18:57:57.612Z,2.20
2023-04-09T19:01:11.195Z,2.70
2023-04-09T19:04:16.520Z,5.22
2023-04-09T19:07:22.384Z,4.40
2023-04-09T19:10:28.939Z,3.00
2023-04-09T19:13:34.661Z,3.03
2023-04-09T19:16:39.958Z,2.88
2023-04-09T19:19:45.130Z,2.90
2023-04-09T19:22:53.637Z,3.28
2023-04-09T19:25:58.752Z,3.28
2023-04-09T19:29:05.762Z,3.17
2023-04-09T19:32:13.407Z,3.60
2023-04-09T19:35:18.815Z,3.40
2023-04-09T19:38:24.365Z,4.03
2023-04-09T19:41:29.979Z,3.58
2023-04-09T19:44:35.688Z,3.95
2023-04-09T19:47:41.263Z,3.75
2023-04-09T19:50:48.556Z,4.13
2023-04-09T19:53:53.644Z,4.25
2023-04-09T19:57:00.124Z,3.80
2023-04-09T20:00:07.489Z,4.30
2023-04-09T20:03:19.041Z,3.80
2023-04-09T20:06:24.573Z,3.15
2023-04-09T20:09:30.190Z,2.83
2023-04-09T20:12:35.684Z,3.40
2023-04-09T20:15:41.712Z,3.25
2023-04-09T20:18:47.684Z,3.05
2023-04-09T20:21:52.980Z,3.45
2023-04-09T20:25:00.202Z,3.60
2023-04-09T20:28:05.457Z,3.30
2023-04-09T20:31:10.528Z,3.65
2023-04-09T20:34:16.083Z,3.20
2023-04-09T20:37:21.617Z,3.40
2023-04-09T20:40:27.124Z,3.58
2023-04-09T20:43:33.224Z,3.40
2023-04-09T20:46:40.072Z,3.85
2023-04-09T20:49:47.531Z,3.70
2023-04-09T20:52:53.698Z,4.03
2023-04-09T20:55:59.702Z,3.97
2023-04-09T20:59:05.400Z,3.60
2023-04-09T21:02:13.123Z,3.63
2023-04-09T21:05:23.934Z,4.03
2023-04-09T21:08:30.553Z,4.30
2023-04-09T21:11:36.544Z,4.70
2023-04-09T21:14:42.509Z,4.68
2023-04-09T21:17:48.238Z,4.65
2023-04-09T21:20:53.431Z,4.63
2023-04-09T21:24:00.392Z,5.25
2023-04-09T21:27:07.631Z,5.03
2023-04-09T21:30:12.725Z,4.78
2023-04-09T21:33:18.478Z,5.30
2023-04-09T21:36:26.434Z,4.68
2023-04-09T21:39:31.920Z,4.80
2023-04-09T21:42:37.381Z,4.45
2023-04-09T21:45:42.917Z,4.75
2023-04-09T21:48:48.523Z,4.88
2023-04-09T21:51:56.000Z,4.95
2023-04-09T21:55:01.770Z,4.43
2023-04-09T21:58:08.618Z,5.40
2023-04-09T22:01:22.668Z,4.75
2023-04-09T22:04:37.760Z,5.00
2023-04-09T22:07:43.151Z,5.30
2023-04-09T22:10:48.312Z,5.53
2023-04-09T22:13:53.651Z,5.50
2023-04-09T22:17:01.755Z,5.03
2023-04-09T22:20:07.992Z,4.75
2023-04-09T22:23:13.081Z,5.38
2023-04-09T22:26:18.345Z,5.45
2023-04-09T22:29:28.207Z,5.47
2023-04-09T22:32:33.900Z,5.60
2023-04-09T22:35:39.523Z,6.38
2023-04-09T22:38:44.792Z,6.43
2023-04-09T22:41:50.350Z,6.57
2023-04-09T22:44:55.645Z,5.95
2023-04-09T22:48:00.913Z,6.07
2023-04-09T22:51:07.021Z,6.40
2023-04-09T22:54:12.357Z,6.05
2023-04-09T22:57:18.079Z,6.75
2023-04-09T23:00:23.610Z,5.97
2023-04-09T23:03:29.069Z,6.18
2023-04-09T23:06:34.886Z,6.13
2023-04-09T23:09:40.239Z,6.25
2023-04-09T23:12:45.648Z,6.72
2023-04-09T23:15:51.422Z,5.90
2023-04-09T23:18:56.956Z,5.95
2023-04-09T23:22:02.100Z,6.10
2023-04-09T23:25:07.587Z,7.10
2023-04-09T23:28:12.551Z,6.13
2023-04-09T23:31:17.467Z,6.07
2023-04-09T23:34:22.764Z,6.28
2023-04-09T23:37:28.322Z,5.85
2023-04-09T23:40:33.556Z,5.65
2023-04-09T23:43:38.837Z,6.30
2023-04-09T23:46:44.274Z,5.80
2023-04-09T23:49:49.666Z,7.07
2023-04-09T23:53:00.168Z,5.97
2023-04-09T23:56:05.785Z,6.15
2023-04-09T23:59:10.705Z,6.50
